Abha, Saudi Arabia

8:23 AM AST on October 21, 2014 (GMT +0300)
Abha | Change Station
CLOSE
Current Station
Airport
Location: Abha,
Elevation: 6857 ft
Nearby Weather Stations

Elev 6857 ft 18.24 °N, 42.66 °E | Updated 23 minutes ago

Clear
Clear
68 °F
Feels Like 68 °F
N
0
Wind Variable Wind from North

Today
High -- | Low -- °F
--% Chance of Precip.
Yesterday
High -- | Low -- °F
Precip. -- in
6:04 AM 5:43 PM
Waning Crescent, 7% visible
Pressure 30.30 in
Visibility -9999.0 miles
Clouds
Dew Point 45 °F
Humidity 43%
Rainfall 0.00 in
Snow Depth Not available.
UV Not available.
Pollen Not available.
Air Quality Not available.
Flu Activity Not available.
METAR OEAB 210500Z 00000KT CAVOK 20/07 Q1026 NOSIG

More Conditions Fewer Conditions

Pressure 30.30 in
Visibility -9999.0 miles
Clouds
Dew Point 45 °F
Humidity 43%
Rainfall 0.00 in
Snow Depth Not available.
UV Not available.
Pollen Not available.
Air Quality Not available.
Flu Activity Not available.
METAR OEAB 210500Z 00000KT CAVOK 20/07 Q1026 NOSIG

More Conditions Fewer Conditions

10-Day Weather Forecast

Almanac

Astronomy

Oct. 21, 2014 Rise Set
Actual Time 6:04 AM AST 5:43 PM AST
Civil Twilight 5:42 AM AST 6:05 PM AST
Nautical Twilight 5:17 AM AST 6:30 PM AST
Astronomical Twilight 4:51 AM AST 6:56 PM AST
Moon 3:49 AM AST 4:08 PM AST
Length of Visible Light 12h 22m
Length of Day
11h 38m
Tomorrow will be 0m 57s shorter.
Waning Crescent, 7% of the Moon is Illuminated
Today
Waning Crescent
Oct 23
New
Oct 30
First Quarter
Nov 6
Full
Nov 14
Last Quarter

Yesterday's Extremes

Country Highs Country Lows

Community

WunderPhotos

Upload Photos

1,763,612 photos uploaded!

Nearby

Snow Depth

Not available.

Earthquake Activity

City Distance Mag. Time & Date
No recent earthquake activity has been reported nearby.
Minimum magnitude displayed is 2.5.

Coastal Water Temperatures

Place Temperature
No Stations Reporting

Nearby Weather Stations